Sir Henry — DYIL — position and weather

sailwx.info

Track history (hours):
 
Tides and Currents Weather Stations Pressure Air Temp Water Temp Dewpoint Dewpoint Depression Visibility Wind Speed Wind Dir Waves Ship Positions

Sir Henry

Last reported at 2015-Jun-30 21:27 UTC. Time now 2015-Jul-05 09:33 UTC.
Position N 32°17' W 009°19'.

Length 148 m; draft 9.3 m.

Type: Cargo ship. MMSI: 548718000.

Date/timePositionNaut miles runAvg speedWind from/ knotsBaromVisibWave heightAir tempDewpointWater temp
2015-Jun-30 21:27N 32°17' W 009°19'0 0.0
2015-Jun-30 20:30N 32°17' W 009°19'0 0.0
2015-Jun-30 19:12N 32°17' W 009°19'0 0.0
2015-Jun-30 18:33N 32°17' W 009°19'0 0.0
2015-Jun-30 13:30N 32°17' W 009°19'0 0.0
2015-Jun-30 00:19N 32°18' W 009°19'7 5.3
2015-Jun-29 23:04N 32°24' W 009°20'811.9
2015-Jun-29 22:22N 32°32' W 009°21'1012.1
2015-Jun-29 21:32N 32°42' W 009°22'3712.4
2015-Jun-29 18:31N 33°19' W 009°28'1212.5
2015-Jun-29 17:33N 33°31' W 009°30'1312.6
2015-Jun-29 16:32N 33°44' W 009°31'1212.3
2015-Jun-29 15:31N 33°57' W 009°33'1212.2
2015-Jun-29 14:34N 34°08' W 009°35'3911.9
2015-Jun-29 11:17N 34°47' W 009°40'3411.9
2015-Jun-29 08:28N 35°20' W 009°45'1112.1
2015-Jun-29 07:33N 35°31' W 009°47'1211.8
2015-Jun-29 06:32N 35°43' W 009°48'1111.8
2015-Jun-29 05:33N 35°54' W 009°50'1211.5
2015-Jun-29 04:33N 36°06' W 009°52'1211.5
2015-Jun-29 03:33N 36°17' W 009°54'1111.5
2015-Jun-29 02:33N 36°29' W 009°55'1211.6
2015-Jun-29 01:33N 36°40' W 009°57'1211.9
2015-Jun-29 00:34N 36°52' W 009°59'1211.8
2015-Jun-28 23:34N 37°04' W 010°00'1211.9
2015-Jun-28 22:33N 37°15' W 010°02'1211.9
2015-Jun-28 21:33N 37°27' W 010°04'1211.9
2015-Jun-28 20:33N 37°39' W 010°06'1211.8
2015-Jun-28 19:33N 37°51' W 010°08'1211.9
2015-Jun-28 18:33N 38°03' W 010°09'1212.0
2015-Jun-28 17:33N 38°14' W 010°11'1211.8
2015-Jun-28 16:33N 38°26' W 010°13'1212.1
2015-Jun-28 15:34N 38°38' W 010°15'1211.9
2015-Jun-28 14:34N 38°50' W 010°15'1212.3
2015-Jun-28 13:33N 39°02' W 010°15'1212.1
2015-Jun-28 12:33N 39°14' W 010°15'1212.3
2015-Jun-28 11:33N 39°27' W 010°15'1212.2
2015-Jun-28 10:34N 39°39' W 010°15'1211.9
2015-Jun-28 09:33N 39°51' W 010°15'1612.2
2015-Jun-28 08:14N 40°07' W 010°15'912.3
2015-Jun-28 07:31N 40°16' W 010°15'1212.0
2015-Jun-28 06:28N 40°29' W 010°16'1112.1
2015-Jun-28 05:33N 40°40' W 010°15'57611.2
2015-Jun-26 02:10N 49°23' W 004°33'6711.8
2015-Jun-25 20:28N 49°56' W 003°03'1212.8
2015-Jun-25 19:34N 50°01' W 002°47'1313.0
2015-Jun-25 18:33N 50°04' W 002°27'1312.6
2015-Jun-25 17:34N 50°08' W 002°08'1211.8
2015-Jun-25 16:34N 50°11' W 001°51'1110.8
2015-Jun-25 15:33N 50°14' W 001°34'1010.2
2015-Jun-25 14:33N 50°17' W 001°19'1010.1
2015-Jun-25 13:33N 50°19' W 001°04'1010.2
2015-Jun-25 12:34N 50°22' W 000°49'1110.6
2015-Jun-25 11:29N 50°25' W 000°31'1011.4
2015-Jun-25 10:33N 50°28' W 000°15'1211.9
2015-Jun-25 09:33N 50°31' E 000°03'1312.9
2015-Jun-25 08:33N 50°35' E 000°22'1212.5
2015-Jun-25 07:34N 50°40' E 000°40'1110.9
2015-Jun-25 06:33N 50°46' E 000°54'1210.0
2015-Jun-25 05:19N 50°54' E 001°08'11 9.4
2015-Jun-25 04:12N 51°01' E 001°21'6 9.6
2015-Jun-25 03:34N 51°05' E 001°29'1110.9
2015-Jun-25 02:33N 51°12' E 001°42'1211.7
2015-Jun-25 01:33N 51°22' E 001°52'1211.6
2015-Jun-25 00:34N 51°32' E 002°02'58 9.6
2015-Jun-24 18:30N 52°15' E 003°04'9 9.6
2015-Jun-24 17:32N 52°23' E 003°13'90 9.8
2015-Jun-24 08:22N 53°31' E 004°50'810.0
2015-Jun-24 07:33N 53°34' E 005°03'1110.8
2015-Jun-24 06:33N 53°37' E 005°20'1110.8
2015-Jun-24 05:33N 53°41' E 005°37'1110.5
2015-Jun-24 04:33N 53°44' E 005°54'46 8.5
2015-Jun-23 23:09N 53°56' E 007°09'5 8.4
2015-Jun-23 22:33N 53°57' E 007°17'10 9.7
2015-Jun-23 21:33N 53°59' E 007°33'9 8.5
2015-Jun-23 20:33N 53°55' E 007°46'9 9.3
2015-Jun-23 19:33N 53°51' E 008°00'510.6
2015-Jun-23 19:06N 53°49' E 008°08'31 1.3
2015-Jun-22 19:33N 53°21' E 008°30'0 0.0
2015-Jun-22 18:33N 53°21' E 008°30'0 0.0
2015-Jun-22 17:33N 53°21' E 008°30'0 0.0
2015-Jun-22 16:33N 53°21' E 008°30'0 0.0
2015-Jun-22 15:30N 53°21' E 008°30'0 0.0
2015-Jun-22 14:24N 53°21' E 008°30'0 0.0
2015-Jun-22 13:33N 53°21' E 008°30'0 0.0
2015-Jun-22 12:27N 53°21' E 008°30'0 0.0
2015-Jun-22 11:33N 53°21' E 008°30'0 0.0
2015-Jun-22 10:33N 53°21' E 008°30'0 0.0
2015-Jun-22 09:33N 53°21' E 008°30'0 0.0
2015-Jun-22 08:30N 53°21' E 008°30'0 0.0
2015-Jun-22 07:30N 53°21' E 008°30'0 0.0
2015-Jun-22 06:33N 53°21' E 008°30'0 0.0
2015-Jun-22 05:33N 53°21' E 008°30'0 0.0
2015-Jun-22 04:27N 53°21' E 008°30'0 0.0
2015-Jun-22 03:33N 53°21' E 008°30'0 0.0
2015-Jun-22 02:33N 53°21' E 008°30'0 0.0
2015-Jun-22 01:30N 53°21' E 008°30'0 0.0
2015-Jun-22 00:33N 53°21' E 008°30'0 0.0
2015-Jun-21 23:24N 53°21' E 008°30'0 0.0
2015-Jun-21 22:33N 53°21' E 008°30'0 0.0
2015-Jun-21 21:33N 53°21' E 008°30'0 0.0
2015-Jun-21 20:32N 53°21' E 008°30'0 0.0
2015-Jun-21 19:32N 53°21' E 008°30'0 0.0
2015-Jun-21 18:32N 53°21' E 008°30'0 0.0
2015-Jun-21 17:20N 53°21' E 008°30'0 0.0
2015-Jun-21 16:32N 53°21' E 008°30'0 0.0
2015-Jun-21 15:32N 53°21' E 008°30'0 0.0
2015-Jun-21 14:32N 53°21' E 008°30'0 0.0
2015-Jun-21 13:32N 53°21' E 008°30'0 0.0
2015-Jun-21 12:32N 53°21' E 008°30'0 0.0
2015-Jun-21 11:32N 53°21' E 008°30'0 0.0
2015-Jun-21 10:32N 53°21' E 008°30'0 0.0
2015-Jun-21 09:32N 53°21' E 008°30'0 0.0
2015-Jun-21 08:32N 53°21' E 008°30'0 0.0
2015-Jun-21 07:32N 53°21' E 008°30'0 0.0
2015-Jun-21 06:26N 53°21' E 008°30'0 0.0
2015-Jun-21 05:29N 53°21' E 008°30'0 0.0
2015-Jun-21 04:32N 53°21' E 008°30'0 0.0
2015-Jun-21 02:23N 53°21' E 008°30'0 0.0
2015-Jun-21 01:32N 53°21' E 008°30'0 0.0
2015-Jun-21 00:23N 53°21' E 008°30'0 0.0
2015-Jun-20 23:26N 53°21' E 008°30'0 0.0
2015-Jun-20 22:32N 53°21' E 008°30'  
Track history (hours):
 
Tides and Currents Weather Stations Pressure Air Temp Water Temp Dewpoint Dewpoint Depression Visibility Wind Speed Wind Dir Waves Ship Positions

Sir Henry

Last reported at 2015-Jun-30 21:27 UTC. Time now 2015-Jul-05 09:33 UTC.
Position N 32°17' W 009°19'.

Length 148 m; draft 9.3 m.

Type: Cargo ship. MMSI: 548718000.

Date/timePositionNaut miles runAvg speedWind from/ knotsBaromVisibWave heightAir tempDewpointWater temp
2015-Jun-30 21:27N 32°17' W 009°19'0 0.0
2015-Jun-30 20:30N 32°17' W 009°19'0 0.0
2015-Jun-30 19:12N 32°17' W 009°19'0 0.0
2015-Jun-30 18:33N 32°17' W 009°19'0 0.0
2015-Jun-30 13:30N 32°17' W 009°19'0 0.0
2015-Jun-30 00:19N 32°18' W 009°19'7 5.3
2015-Jun-29 23:04N 32°24' W 009°20'811.9
2015-Jun-29 22:22N 32°32' W 009°21'1012.1
2015-Jun-29 21:32N 32°42' W 009°22'3712.4
2015-Jun-29 18:31N 33°19' W 009°28'1212.5
2015-Jun-29 17:33N 33°31' W 009°30'1312.6
2015-Jun-29 16:32N 33°44' W 009°31'1212.3
2015-Jun-29 15:31N 33°57' W 009°33'1212.2
2015-Jun-29 14:34N 34°08' W 009°35'3911.9
2015-Jun-29 11:17N 34°47' W 009°40'3411.9
2015-Jun-29 08:28N 35°20' W 009°45'1112.1
2015-Jun-29 07:33N 35°31' W 009°47'1211.8
2015-Jun-29 06:32N 35°43' W 009°48'1111.8
2015-Jun-29 05:33N 35°54' W 009°50'1211.5
2015-Jun-29 04:33N 36°06' W 009°52'1211.5
2015-Jun-29 03:33N 36°17' W 009°54'1111.5
2015-Jun-29 02:33N 36°29' W 009°55'1211.6
2015-Jun-29 01:33N 36°40' W 009°57'1211.9
2015-Jun-29 00:34N 36°52' W 009°59'1211.8
2015-Jun-28 23:34N 37°04' W 010°00'1211.9
2015-Jun-28 22:33N 37°15' W 010°02'1211.9
2015-Jun-28 21:33N 37°27' W 010°04'1211.9
2015-Jun-28 20:33N 37°39' W 010°06'1211.8
2015-Jun-28 19:33N 37°51' W 010°08'1211.9
2015-Jun-28 18:33N 38°03' W 010°09'1212.0
2015-Jun-28 17:33N 38°14' W 010°11'1211.8
2015-Jun-28 16:33N 38°26' W 010°13'1212.1
2015-Jun-28 15:34N 38°38' W 010°15'1211.9
2015-Jun-28 14:34N 38°50' W 010°15'1212.3
2015-Jun-28 13:33N 39°02' W 010°15'1212.1
2015-Jun-28 12:33N 39°14' W 010°15'1212.3
2015-Jun-28 11:33N 39°27' W 010°15'1212.2
2015-Jun-28 10:34N 39°39' W 010°15'1211.9
2015-Jun-28 09:33N 39°51' W 010°15'1612.2
2015-Jun-28 08:14N 40°07' W 010°15'912.3
2015-Jun-28 07:31N 40°16' W 010°15'1212.0
2015-Jun-28 06:28N 40°29' W 010°16'1112.1
2015-Jun-28 05:33N 40°40' W 010°15'57611.2
2015-Jun-26 02:10N 49°23' W 004°33'6711.8
2015-Jun-25 20:28N 49°56' W 003°03'1212.8
2015-Jun-25 19:34N 50°01' W 002°47'1313.0
2015-Jun-25 18:33N 50°04' W 002°27'1312.6
2015-Jun-25 17:34N 50°08' W 002°08'1211.8
2015-Jun-25 16:34N 50°11' W 001°51'1110.8
2015-Jun-25 15:33N 50°14' W 001°34'1010.2
2015-Jun-25 14:33N 50°17' W 001°19'1010.1
2015-Jun-25 13:33N 50°19' W 001°04'1010.2
2015-Jun-25 12:34N 50°22' W 000°49'1110.6
2015-Jun-25 11:29N 50°25' W 000°31'1011.4
2015-Jun-25 10:33N 50°28' W 000°15'1211.9
2015-Jun-25 09:33N 50°31' E 000°03'1312.9
2015-Jun-25 08:33N 50°35' E 000°22'1212.5
2015-Jun-25 07:34N 50°40' E 000°40'1110.9
2015-Jun-25 06:33N 50°46' E 000°54'1210.0
2015-Jun-25 05:19N 50°54' E 001°08'11 9.4
2015-Jun-25 04:12N 51°01' E 001°21'6 9.6
2015-Jun-25 03:34N 51°05' E 001°29'1110.9
2015-Jun-25 02:33N 51°12' E 001°42'1211.7
2015-Jun-25 01:33N 51°22' E 001°52'1211.6
2015-Jun-25 00:34N 51°32' E 002°02'58 9.6
2015-Jun-24 18:30N 52°15' E 003°04'9 9.6
2015-Jun-24 17:32N 52°23' E 003°13'90 9.8
2015-Jun-24 08:22N 53°31' E 004°50'810.0
2015-Jun-24 07:33N 53°34' E 005°03'1110.8
2015-Jun-24 06:33N 53°37' E 005°20'1110.8
2015-Jun-24 05:33N 53°41' E 005°37'1110.5
2015-Jun-24 04:33N 53°44' E 005°54'46 8.5
2015-Jun-23 23:09N 53°56' E 007°09'5 8.4
2015-Jun-23 22:33N 53°57' E 007°17'10 9.7
2015-Jun-23 21:33N 53°59' E 007°33'9 8.5
2015-Jun-23 20:33N 53°55' E 007°46'9 9.3
2015-Jun-23 19:33N 53°51' E 008°00'510.6
2015-Jun-23 19:06N 53°49' E 008°08'31 1.3
2015-Jun-22 19:33N 53°21' E 008°30'0 0.0
2015-Jun-22 18:33N 53°21' E 008°30'0 0.0
2015-Jun-22 17:33N 53°21' E 008°30'0 0.0
2015-Jun-22 16:33N 53°21' E 008°30'0 0.0
2015-Jun-22 15:30N 53°21' E 008°30'0 0.0
2015-Jun-22 14:24N 53°21' E 008°30'0 0.0
2015-Jun-22 13:33N 53°21' E 008°30'0 0.0
2015-Jun-22 12:27N 53°21' E 008°30'0 0.0
2015-Jun-22 11:33N 53°21' E 008°30'0 0.0
2015-Jun-22 10:33N 53°21' E 008°30'0 0.0
2015-Jun-22 09:33N 53°21' E 008°30'0 0.0
2015-Jun-22 08:30N 53°21' E 008°30'0 0.0
2015-Jun-22 07:30N 53°21' E 008°30'0 0.0
2015-Jun-22 06:33N 53°21' E 008°30'0 0.0
2015-Jun-22 05:33N 53°21' E 008°30'0 0.0
2015-Jun-22 04:27N 53°21' E 008°30'0 0.0
2015-Jun-22 03:33N 53°21' E 008°30'0 0.0
2015-Jun-22 02:33N 53°21' E 008°30'0 0.0
2015-Jun-22 01:30N 53°21' E 008°30'0 0.0
2015-Jun-22 00:33N 53°21' E 008°30'0 0.0
2015-Jun-21 23:24N 53°21' E 008°30'0 0.0
2015-Jun-21 22:33N 53°21' E 008°30'0 0.0
2015-Jun-21 21:33N 53°21' E 008°30'0 0.0
2015-Jun-21 20:32N 53°21' E 008°30'0 0.0
2015-Jun-21 19:32N 53°21' E 008°30'0 0.0
2015-Jun-21 18:32N 53°21' E 008°30'0 0.0
2015-Jun-21 17:20N 53°21' E 008°30'0 0.0
2015-Jun-21 16:32N 53°21' E 008°30'0 0.0
2015-Jun-21 15:32N 53°21' E 008°30'0 0.0
2015-Jun-21 14:32N 53°21' E 008°30'0 0.0
2015-Jun-21 13:32N 53°21' E 008°30'0 0.0
2015-Jun-21 12:32N 53°21' E 008°30'0 0.0
2015-Jun-21 11:32N 53°21' E 008°30'0 0.0
2015-Jun-21 10:32N 53°21' E 008°30'0 0.0
2015-Jun-21 09:32N 53°21' E 008°30'0 0.0
2015-Jun-21 08:32N 53°21' E 008°30'0 0.0
2015-Jun-21 07:32N 53°21' E 008°30'0 0.0
2015-Jun-21 06:26N 53°21' E 008°30'0 0.0
2015-Jun-21 05:29N 53°21' E 008°30'0 0.0
2015-Jun-21 04:32N 53°21' E 008°30'0 0.0
2015-Jun-21 02:23N 53°21' E 008°30'0 0.0
2015-Jun-21 01:32N 53°21' E 008°30'0 0.0
2015-Jun-21 00:23N 53°21' E 008°30'0 0.0
2015-Jun-20 23:26N 53°21' E 008°30'0 0.0
2015-Jun-20 22:32N 53°21' E 008°30'  

Dump ship's entire track history